sensor_id;sensor_type;location;lat;lon;timestamp;P1;durP1;ratioP1;P2;durP2;ratioP2
38783;SDS011;24531;45.502;12.238;2023-03-04T00:02:21;20.42;;;11.60;;
38783;SDS011;24531;45.502;12.238;2023-03-04T00:04:46;17.48;;;11.40;;
38783;SDS011;24531;45.502;12.238;2023-03-04T00:07:12;18.20;;;12.40;;
38783;SDS011;24531;45.502;12.238;2023-03-04T00:09:41;15.75;;;10.93;;
38783;SDS011;24531;45.502;12.238;2023-03-04T00:12:07;17.73;;;11.50;;
38783;SDS011;24531;45.502;12.238;2023-03-04T00:14:33;18.13;;;11.23;;
38783;SDS011;24531;45.502;12.238;2023-03-04T00:16:58;16.25;;;10.77;;
38783;SDS011;24531;45.502;12.238;2023-03-04T00:19:24;16.23;;;11.23;;
38783;SDS011;24531;45.502;12.238;2023-03-04T00:21:49;17.38;;;11.07;;
38783;SDS011;24531;45.502;12.238;2023-03-04T00:24:15;16.70;;;11.52;;
38783;SDS011;24531;45.502;12.238;2023-03-04T00:26:41;21.50;;;12.70;;
38783;SDS011;24531;45.502;12.238;2023-03-04T00:29:06;17.15;;;11.35;;
38783;SDS011;24531;45.502;12.238;2023-03-04T00:31:32;18.42;;;12.82;;
38783;SDS011;24531;45.502;12.238;2023-03-04T00:33:57;19.90;;;12.07;;
38783;SDS011;24531;45.502;12.238;2023-03-04T00:36:23;18.25;;;11.77;;
38783;SDS011;24531;45.502;12.238;2023-03-04T00:38:49;18.08;;;11.68;;
38783;SDS011;24531;45.502;12.238;2023-03-04T00:41:14;18.70;;;12.30;;
38783;SDS011;24531;45.502;12.238;2023-03-04T00:43:41;19.58;;;12.20;;
38783;SDS011;24531;45.502;12.238;2023-03-04T00:46:07;18.35;;;12.55;;
38783;SDS011;24531;45.502;12.238;2023-03-04T00:48:32;19.25;;;12.43;;
38783;SDS011;24531;45.502;12.238;2023-03-04T00:50:58;16.25;;;10.95;;
38783;SDS011;24531;45.502;12.238;2023-03-04T00:53:23;19.50;;;11.90;;
38783;SDS011;24531;45.502;12.238;2023-03-04T00:55:49;17.25;;;12.05;;
38783;SDS011;24531;45.502;12.238;2023-03-04T00:58:15;19.45;;;11.68;;
38783;SDS011;24531;45.502;12.238;2023-03-04T01:00:40;16.80;;;10.63;;
38783;SDS011;24531;45.502;12.238;2023-03-04T01:03:06;14.85;;;10.43;;
38783;SDS011;24531;45.502;12.238;2023-03-04T01:05:31;20.38;;;12.10;;
38783;SDS011;24531;45.502;12.238;2023-03-04T01:07:59;19.33;;;11.10;;
38783;SDS011;24531;45.502;12.238;2023-03-04T01:10:25;19.80;;;12.60;;
38783;SDS011;24531;45.502;12.238;2023-03-04T01:12:51;21.27;;;12.50;;
38783;SDS011;24531;45.502;12.238;2023-03-04T01:15:17;22.77;;;11.88;;
38783;SDS011;24531;45.502;12.238;2023-03-04T01:17:42;22.83;;;13.80;;
38783;SDS011;24531;45.502;12.238;2023-03-04T01:20:08;18.48;;;12.13;;
38783;SDS011;24531;45.502;12.238;2023-03-04T01:22:35;19.83;;;11.70;;
38783;SDS011;24531;45.502;12.238;2023-03-04T01:25:04;20.85;;;11.07;;
38783;SDS011;24531;45.502;12.238;2023-03-04T01:27:30;20.55;;;12.93;;
38783;SDS011;24531;45.502;12.238;2023-03-04T01:29:56;20.05;;;12.48;;
38783;SDS011;24531;45.502;12.238;2023-03-04T01:32:21;18.08;;;11.35;;
38783;SDS011;24531;45.502;12.238;2023-03-04T01:34:47;17.35;;;12.02;;
38783;SDS011;24531;45.502;12.238;2023-03-04T01:37:12;19.77;;;11.85;;
38783;SDS011;24531;45.502;12.238;2023-03-04T01:39:38;24.17;;;13.32;;
38783;SDS011;24531;45.502;12.238;2023-03-04T01:42:04;17.42;;;11.60;;
38783;SDS011;24531;45.502;12.238;2023-03-04T01:44:33;19.35;;;12.85;;
38783;SDS011;24531;45.502;12.238;2023-03-04T01:46:58;19.77;;;12.82;;
38783;SDS011;24531;45.502;12.238;2023-03-04T01:49:24;18.85;;;12.38;;
38783;SDS011;24531;45.502;12.238;2023-03-04T01:51:51;21.33;;;12.55;;
38783;SDS011;24531;45.502;12.238;2023-03-04T01:54:19;22.17;;;12.57;;
38783;SDS011;24531;45.502;12.238;2023-03-04T01:56:46;19.73;;;12.40;;
38783;SDS011;24531;45.502;12.238;2023-03-04T01:59:24;20.15;;;12.75;;
38783;SDS011;24531;45.502;12.238;2023-03-04T02:01:51;16.92;;;11.90;;
38783;SDS011;24531;45.502;12.238;2023-03-04T02:04:19;19.98;;;12.77;;
38783;SDS011;24531;45.502;12.238;2023-03-04T02:06:48;21.00;;;11.98;;
38783;SDS011;24531;45.502;12.238;2023-03-04T02:09:15;19.73;;;11.75;;
38783;SDS011;24531;45.502;12.238;2023-03-04T02:11:41;18.10;;;12.05;;
38783;SDS011;24531;45.502;12.238;2023-03-04T02:14:09;17.80;;;12.80;;
38783;SDS011;24531;45.502;12.238;2023-03-04T02:16:36;18.85;;;11.68;;
38783;SDS011;24531;45.502;12.238;2023-03-04T02:19:04;17.25;;;12.15;;
38783;SDS011;24531;45.502;12.238;2023-03-04T02:21:33;20.30;;;12.13;;
38783;SDS011;24531;45.502;12.238;2023-03-04T02:26:39;17.70;;;11.57;;
38783;SDS011;24531;45.502;12.238;2023-03-04T02:29:07;19.85;;;11.73;;
38783;SDS011;24531;45.502;12.238;2023-03-04T02:31:36;19.92;;;12.50;;
38783;SDS011;24531;45.502;12.238;2023-03-04T02:34:05;19.70;;;11.63;;
38783;SDS011;24531;45.502;12.238;2023-03-04T02:36:36;17.45;;;11.68;;
38783;SDS011;24531;45.502;12.238;2023-03-04T02:39:20;19.63;;;12.02;;
38783;SDS011;24531;45.502;12.238;2023-03-04T02:41:46;19.25;;;11.75;;
38783;SDS011;24531;45.502;12.238;2023-03-04T02:44:17;19.08;;;11.98;;
38783;SDS011;24531;45.502;12.238;2023-03-04T02:46:48;18.75;;;11.85;;
38783;SDS011;24531;45.502;12.238;2023-03-04T02:49:15;20.00;;;11.60;;
38783;SDS011;24531;45.502;12.238;2023-03-04T02:51:41;16.70;;;11.93;;
38783;SDS011;24531;45.502;12.238;2023-03-04T02:54:14;15.93;;;11.00;;
38783;SDS011;24531;45.502;12.238;2023-03-04T02:56:45;14.95;;;10.45;;
38783;SDS011;24531;45.502;12.238;2023-03-04T02:59:11;18.45;;;11.77;;
38783;SDS011;24531;45.502;12.238;2023-03-04T03:01:37;18.80;;;12.65;;
38783;SDS011;24531;45.502;12.238;2023-03-04T03:04:02;18.42;;;12.50;;
38783;SDS011;24531;45.502;12.238;2023-03-04T03:06:28;18.25;;;11.80;;
38783;SDS011;24531;45.502;12.238;2023-03-04T03:08:53;20.77;;;12.27;;
38783;SDS011;24531;45.502;12.238;2023-03-04T03:11:19;19.08;;;12.25;;
38783;SDS011;24531;45.502;12.238;2023-03-04T03:13:45;18.63;;;11.77;;
38783;SDS011;24531;45.502;12.238;2023-03-04T03:16:10;21.67;;;12.90;;
38783;SDS011;24531;45.502;12.238;2023-03-04T03:18:36;21.60;;;11.98;;
38783;SDS011;24531;45.502;12.238;2023-03-04T03:21:01;17.73;;;11.90;;
38783;SDS011;24531;45.502;12.238;2023-03-04T03:23:27;18.25;;;12.73;;
38783;SDS011;24531;45.502;12.238;2023-03-04T03:25:53;17.45;;;12.23;;
38783;SDS011;24531;45.502;12.238;2023-03-04T03:28:18;22.55;;;13.23;;
38783;SDS011;24531;45.502;12.238;2023-03-04T03:30:44;19.88;;;11.75;;
38783;SDS011;24531;45.502;12.238;2023-03-04T03:33:10;19.17;;;11.73;;
38783;SDS011;24531;45.502;12.238;2023-03-04T03:35:35;17.10;;;12.30;;
38783;SDS011;24531;45.502;12.238;2023-03-04T03:38:01;18.52;;;11.50;;
38783;SDS011;24531;45.502;12.238;2023-03-04T03:40:27;17.05;;;11.88;;
38783;SDS011;24531;45.502;12.238;2023-03-04T03:42:52;18.27;;;12.40;;
38783;SDS011;24531;45.502;12.238;2023-03-04T03:45:18;19.58;;;12.73;;
38783;SDS011;24531;45.502;12.238;2023-03-04T03:47:44;25.92;;;12.48;;
38783;SDS011;24531;45.502;12.238;2023-03-04T03:50:09;24.85;;;12.13;;
38783;SDS011;24531;45.502;12.238;2023-03-04T03:52:35;24.80;;;13.52;;
38783;SDS011;24531;45.502;12.238;2023-03-04T03:55:01;18.42;;;12.18;;
38783;SDS011;24531;45.502;12.238;2023-03-04T03:57:27;25.15;;;13.40;;
38783;SDS011;24531;45.502;12.238;2023-03-04T03:59:53;20.05;;;11.70;;
38783;SDS011;24531;45.502;12.238;2023-03-04T04:02:19;17.15;;;10.88;;
38783;SDS011;24531;45.502;12.238;2023-03-04T04:04:46;19.90;;;12.52;;
38783;SDS011;24531;45.502;12.238;2023-03-04T04:07:12;19.27;;;12.82;;
38783;SDS011;24531;45.502;12.238;2023-03-04T04:09:40;22.88;;;13.70;;
38783;SDS011;24531;45.502;12.238;2023-03-04T04:12:05;18.75;;;12.10;;
38783;SDS011;24531;45.502;12.238;2023-03-04T04:14:32;20.75;;;11.55;;
38783;SDS011;24531;45.502;12.238;2023-03-04T04:16:58;17.42;;;11.73;;
38783;SDS011;24531;45.502;12.238;2023-03-04T04:19:24;19.40;;;12.02;;
38783;SDS011;24531;45.502;12.238;2023-03-04T04:21:50;23.15;;;12.82;;
38783;SDS011;24531;45.502;12.238;2023-03-04T04:24:15;17.33;;;11.82;;
38783;SDS011;24531;45.502;12.238;2023-03-04T04:26:41;19.15;;;12.02;;
38783;SDS011;24531;45.502;12.238;2023-03-04T04:29:07;18.95;;;11.98;;
38783;SDS011;24531;45.502;12.238;2023-03-04T04:31:33;17.05;;;11.93;;
38783;SDS011;24531;45.502;12.238;2023-03-04T04:34:00;18.38;;;11.30;;
38783;SDS011;24531;45.502;12.238;2023-03-04T04:36:26;19.73;;;11.52;;
38783;SDS011;24531;45.502;12.238;2023-03-04T04:38:51;19.95;;;12.73;;
38783;SDS011;24531;45.502;12.238;2023-03-04T04:41:21;17.73;;;12.10;;
38783;SDS011;24531;45.502;12.238;2023-03-04T04:43:49;17.65;;;11.93;;
38783;SDS011;24531;45.502;12.238;2023-03-04T04:46:15;17.15;;;10.98;;
38783;SDS011;24531;45.502;12.238;2023-03-04T04:48:42;16.45;;;11.05;;
38783;SDS011;24531;45.502;12.238;2023-03-04T04:51:07;20.80;;;12.95;;
38783;SDS011;24531;45.502;12.238;2023-03-04T04:53:33;19.50;;;12.38;;
38783;SDS011;24531;45.502;12.238;2023-03-04T04:55:59;22.60;;;12.73;;
38783;SDS011;24531;45.502;12.238;2023-03-04T04:58:25;21.75;;;12.50;;
38783;SDS011;24531;45.502;12.238;2023-03-04T05:00:50;21.23;;;12.48;;
38783;SDS011;24531;45.502;12.238;2023-03-04T05:03:16;17.65;;;11.20;;
38783;SDS011;24531;45.502;12.238;2023-03-04T05:05:42;20.65;;;11.27;;
38783;SDS011;24531;45.502;12.238;2023-03-04T05:08:07;17.70;;;12.60;;
38783;SDS011;24531;45.502;12.238;2023-03-04T05:10:33;18.02;;;12.32;;
38783;SDS011;24531;45.502;12.238;2023-03-04T05:12:58;18.33;;;11.27;;
38783;SDS011;24531;45.502;12.238;2023-03-04T05:15:27;20.05;;;12.48;;
38783;SDS011;24531;45.502;12.238;2023-03-04T05:17:52;16.60;;;10.90;;
38783;SDS011;24531;45.502;12.238;2023-03-04T05:20:18;21.00;;;12.73;;
38783;SDS011;24531;45.502;12.238;2023-03-04T05:22:44;16.60;;;12.18;;
38783;SDS011;24531;45.502;12.238;2023-03-04T05:25:09;18.80;;;12.90;;
38783;SDS011;24531;45.502;12.238;2023-03-04T05:27:35;17.85;;;12.48;;
38783;SDS011;24531;45.502;12.238;2023-03-04T05:30:00;19.08;;;13.05;;
38783;SDS011;24531;45.502;12.238;2023-03-04T05:32:26;20.73;;;13.07;;
38783;SDS011;24531;45.502;12.238;2023-03-04T05:34:52;23.10;;;13.32;;
38783;SDS011;24531;45.502;12.238;2023-03-04T05:37:18;18.10;;;11.93;;
38783;SDS011;24531;45.502;12.238;2023-03-04T05:39:43;16.98;;;11.52;;
38783;SDS011;24531;45.502;12.238;2023-03-04T05:42:09;20.67;;;13.07;;
38783;SDS011;24531;45.502;12.238;2023-03-04T05:44:36;23.33;;;12.65;;
38783;SDS011;24531;45.502;12.238;2023-03-04T05:47:01;19.30;;;12.10;;
38783;SDS011;24531;45.502;12.238;2023-03-04T05:49:29;18.88;;;12.38;;
38783;SDS011;24531;45.502;12.238;2023-03-04T05:51:55;20.67;;;12.15;;
38783;SDS011;24531;45.502;12.238;2023-03-04T05:54:20;17.98;;;11.38;;
38783;SDS011;24531;45.502;12.238;2023-03-04T05:56:46;22.83;;;12.40;;
38783;SDS011;24531;45.502;12.238;2023-03-04T05:59:11;18.10;;;12.10;;
38783;SDS011;24531;45.502;12.238;2023-03-04T06:01:38;15.52;;;11.70;;
38783;SDS011;24531;45.502;12.238;2023-03-04T06:04:03;23.08;;;12.73;;
38783;SDS011;24531;45.502;12.238;2023-03-04T06:06:29;22.15;;;12.90;;
38783;SDS011;24531;45.502;12.238;2023-03-04T06:08:54;23.58;;;13.70;;
38783;SDS011;24531;45.502;12.238;2023-03-04T06:11:29;20.35;;;12.23;;
38783;SDS011;24531;45.502;12.238;2023-03-04T06:13:55;21.67;;;11.85;;
38783;SDS011;24531;45.502;12.238;2023-03-04T06:16:20;18.25;;;12.13;;
38783;SDS011;24531;45.502;12.238;2023-03-04T06:18:46;21.80;;;12.48;;
38783;SDS011;24531;45.502;12.238;2023-03-04T06:21:14;18.45;;;12.75;;
38783;SDS011;24531;45.502;12.238;2023-03-04T06:23:40;17.88;;;12.13;;
38783;SDS011;24531;45.502;12.238;2023-03-04T06:26:06;22.50;;;12.13;;
38783;SDS011;24531;45.502;12.238;2023-03-04T06:28:35;19.65;;;11.82;;
38783;SDS011;24531;45.502;12.238;2023-03-04T06:31:03;20.25;;;11.60;;
38783;SDS011;24531;45.502;12.238;2023-03-04T06:33:29;19.77;;;12.02;;
38783;SDS011;24531;45.502;12.238;2023-03-04T06:35:55;20.90;;;13.13;;
38783;SDS011;24531;45.502;12.238;2023-03-04T06:38:21;19.80;;;12.70;;
38783;SDS011;24531;45.502;12.238;2023-03-04T06:40:47;20.75;;;13.02;;
38783;SDS011;24531;45.502;12.238;2023-03-04T06:46:58;21.48;;;11.98;;
38783;SDS011;24531;45.502;12.238;2023-03-04T06:49:23;17.88;;;12.20;;
38783;SDS011;24531;45.502;12.238;2023-03-04T06:51:49;20.80;;;12.90;;
38783;SDS011;24531;45.502;12.238;2023-03-04T06:54:15;22.42;;;12.25;;
38783;SDS011;24531;45.502;12.238;2023-03-04T06:56:40;19.05;;;12.65;;
38783;SDS011;24531;45.502;12.238;2023-03-04T06:59:06;20.55;;;12.73;;
38783;SDS011;24531;45.502;12.238;2023-03-04T07:01:31;20.45;;;13.40;;
38783;SDS011;24531;45.502;12.238;2023-03-04T07:03:58;21.20;;;12.35;;
38783;SDS011;24531;45.502;12.238;2023-03-04T07:06:30;19.70;;;13.27;;
38783;SDS011;24531;45.502;12.238;2023-03-04T07:09:14;22.88;;;13.45;;
38783;SDS011;24531;45.502;12.238;2023-03-04T07:11:40;22.05;;;13.27;;
38783;SDS011;24531;45.502;12.238;2023-03-04T07:14:05;20.73;;;13.23;;
38783;SDS011;24531;45.502;12.238;2023-03-04T07:16:31;20.83;;;13.75;;
38783;SDS011;24531;45.502;12.238;2023-03-04T07:18:57;21.20;;;13.63;;
38783;SDS011;24531;45.502;12.238;2023-03-04T07:21:23;25.83;;;13.93;;
38783;SDS011;24531;45.502;12.238;2023-03-04T07:23:49;17.30;;;12.73;;
38783;SDS011;24531;45.502;12.238;2023-03-04T07:26:15;21.95;;;12.93;;
38783;SDS011;24531;45.502;12.238;2023-03-04T07:28:41;21.58;;;13.50;;
38783;SDS011;24531;45.502;12.238;2023-03-04T07:31:08;20.13;;;14.23;;
38783;SDS011;24531;45.502;12.238;2023-03-04T07:33:35;20.77;;;16.00;;
38783;SDS011;24531;45.502;12.238;2023-03-04T07:36:01;27.85;;;15.40;;
38783;SDS011;24531;45.502;12.238;2023-03-04T07:38:26;22.08;;;13.98;;
38783;SDS011;24531;45.502;12.238;2023-03-04T07:40:55;20.80;;;11.73;;
38783;SDS011;24531;45.502;12.238;2023-03-04T07:43:22;20.70;;;11.98;;
38783;SDS011;24531;45.502;12.238;2023-03-04T07:45:47;15.57;;;11.02;;
38783;SDS011;24531;45.502;12.238;2023-03-04T07:48:13;16.00;;;11.13;;
38783;SDS011;24531;45.502;12.238;2023-03-04T07:50:38;21.90;;;13.00;;
38783;SDS011;24531;45.502;12.238;2023-03-04T07:53:04;24.48;;;12.88;;
38783;SDS011;24531;45.502;12.238;2023-03-04T07:55:30;17.40;;;11.93;;
38783;SDS011;24531;45.502;12.238;2023-03-04T07:57:55;16.98;;;11.57;;
38783;SDS011;24531;45.502;12.238;2023-03-04T08:00:21;16.52;;;11.30;;
38783;SDS011;24531;45.502;12.238;2023-03-04T08:02:47;18.88;;;10.95;;
38783;SDS011;24531;45.502;12.238;2023-03-04T08:05:13;17.45;;;9.95;;
38783;SDS011;24531;45.502;12.238;2023-03-04T08:07:39;16.65;;;10.50;;
38783;SDS011;24531;45.502;12.238;2023-03-04T08:10:05;15.38;;;10.40;;
38783;SDS011;24531;45.502;12.238;2023-03-04T08:12:32;14.18;;;9.55;;
38783;SDS011;24531;45.502;12.238;2023-03-04T08:14:58;13.32;;;8.55;;
38783;SDS011;24531;45.502;12.238;2023-03-04T08:17:24;12.95;;;8.30;;
38783;SDS011;24531;45.502;12.238;2023-03-04T08:19:49;15.88;;;9.05;;
38783;SDS011;24531;45.502;12.238;2023-03-04T08:22:15;16.17;;;8.25;;
38783;SDS011;24531;45.502;12.238;2023-03-04T08:24:41;12.50;;;8.93;;
38783;SDS011;24531;45.502;12.238;2023-03-04T08:27:06;15.05;;;9.15;;
38783;SDS011;24531;45.502;12.238;2023-03-04T08:29:32;14.80;;;8.88;;
38783;SDS011;24531;45.502;12.238;2023-03-04T08:31:58;11.15;;;7.65;;
38783;SDS011;24531;45.502;12.238;2023-03-04T08:34:24;11.80;;;8.20;;
38783;SDS011;24531;45.502;12.238;2023-03-04T08:36:51;13.43;;;8.07;;
38783;SDS011;24531;45.502;12.238;2023-03-04T08:39:17;11.32;;;7.82;;
38783;SDS011;24531;45.502;12.238;2023-03-04T08:41:43;10.13;;;7.40;;
38783;SDS011;24531;45.502;12.238;2023-03-04T08:44:09;13.90;;;7.28;;
38783;SDS011;24531;45.502;12.238;2023-03-04T08:46:38;12.57;;;7.13;;
38783;SDS011;24531;45.502;12.238;2023-03-04T08:49:05;11.50;;;6.88;;
38783;SDS011;24531;45.502;12.238;2023-03-04T08:51:31;10.60;;;6.35;;
38783;SDS011;24531;45.502;12.238;2023-03-04T08:53:59;13.70;;;7.78;;
38783;SDS011;24531;45.502;12.238;2023-03-04T08:56:29;11.57;;;7.47;;
38783;SDS011;24531;45.502;12.238;2023-03-04T08:58:54;14.00;;;6.97;;
38783;SDS011;24531;45.502;12.238;2023-03-04T09:01:20;12.70;;;6.97;;
38783;SDS011;24531;45.502;12.238;2023-03-04T09:03:46;11.05;;;7.32;;
38783;SDS011;24531;45.502;12.238;2023-03-04T09:06:13;9.75;;;6.47;;
38783;SDS011;24531;45.502;12.238;2023-03-04T09:08:40;12.75;;;6.57;;
38783;SDS011;24531;45.502;12.238;2023-03-04T09:11:06;15.68;;;6.82;;
38783;SDS011;24531;45.502;12.238;2023-03-04T09:13:33;12.77;;;7.20;;
38783;SDS011;24531;45.502;12.238;2023-03-04T09:15:59;9.45;;;6.32;;
38783;SDS011;24531;45.502;12.238;2023-03-04T09:18:25;15.60;;;7.60;;
38783;SDS011;24531;45.502;12.238;2023-03-04T09:20:51;13.65;;;7.22;;
38783;SDS011;24531;45.502;12.238;2023-03-04T09:23:18;13.18;;;7.95;;
38783;SDS011;24531;45.502;12.238;2023-03-04T09:25:43;16.02;;;7.85;;
38783;SDS011;24531;45.502;12.238;2023-03-04T09:28:11;15.68;;;7.80;;
38783;SDS011;24531;45.502;12.238;2023-03-04T09:30:37;10.32;;;8.05;;
38783;SDS011;24531;45.502;12.238;2023-03-04T09:33:03;21.65;;;7.70;;
38783;SDS011;24531;45.502;12.238;2023-03-04T09:35:29;11.48;;;7.13;;
38783;SDS011;24531;45.502;12.238;2023-03-04T09:37:55;15.55;;;8.10;;
38783;SDS011;24531;45.502;12.238;2023-03-04T09:40:22;11.68;;;8.95;;
38783;SDS011;24531;45.502;12.238;2023-03-04T09:42:53;10.23;;;7.07;;
38783;SDS011;24531;45.502;12.238;2023-03-04T09:45:24;10.20;;;7.10;;
38783;SDS011;24531;45.502;12.238;2023-03-04T09:47:56;17.45;;;8.32;;
38783;SDS011;24531;45.502;12.238;2023-03-04T09:50:22;10.77;;;7.80;;
38783;SDS011;24531;45.502;12.238;2023-03-04T09:52:56;13.27;;;8.43;;
38783;SDS011;24531;45.502;12.238;2023-03-04T09:55:49;12.68;;;7.50;;
38783;SDS011;24531;45.502;12.238;2023-03-04T10:01:02;13.05;;;7.43;;
38783;SDS011;24531;45.502;12.238;2023-03-04T10:06:15;11.95;;;7.63;;
38783;SDS011;24531;45.502;12.238;2023-03-04T10:08:59;13.57;;;7.82;;
38783;SDS011;24531;45.502;12.238;2023-03-04T10:11:42;13.77;;;8.38;;
38783;SDS011;24531;45.502;12.238;2023-03-04T10:17:15;12.70;;;7.28;;
38783;SDS011;24531;45.502;12.238;2023-03-04T10:20:06;12.07;;;7.68;;
38783;SDS011;24531;45.502;12.238;2023-03-04T10:23:04;13.10;;;7.43;;
38783;SDS011;24531;45.502;12.238;2023-03-04T10:25:34;10.77;;;7.20;;
38783;SDS011;24531;45.502;12.238;2023-03-04T10:28:11;13.38;;;6.78;;
38783;SDS011;24531;45.502;12.238;2023-03-04T10:33:35;11.70;;;7.40;;
38783;SDS011;24531;45.502;12.238;2023-03-04T10:36:11;11.93;;;6.75;;
38783;SDS011;24531;45.502;12.238;2023-03-04T10:38:52;13.07;;;6.63;;
38783;SDS011;24531;45.502;12.238;2023-03-04T10:41:42;11.60;;;6.57;;
38783;SDS011;24531;45.502;12.238;2023-03-04T10:46:41;11.05;;;6.85;;
38783;SDS011;24531;45.502;12.238;2023-03-04T10:49:09;11.88;;;7.47;;
38783;SDS011;24531;45.502;12.238;2023-03-04T10:51:42;12.82;;;7.88;;
38783;SDS011;24531;45.502;12.238;2023-03-04T10:54:26;20.27;;;8.05;;
38783;SDS011;24531;45.502;12.238;2023-03-04T11:00:19;15.18;;;7.20;;
38783;SDS011;24531;45.502;12.238;2023-03-04T11:02:50;19.13;;;7.85;;
38783;SDS011;24531;45.502;12.238;2023-03-04T11:07:47;10.80;;;7.20;;
38783;SDS011;24531;45.502;12.238;2023-03-04T11:12:47;16.60;;;9.80;;
38783;SDS011;24531;45.502;12.238;2023-03-04T11:15:23;14.80;;;8.13;;
38783;SDS011;24531;45.502;12.238;2023-03-04T11:17:57;16.10;;;7.78;;
38783;SDS011;24531;45.502;12.238;2023-03-04T11:20:36;22.17;;;8.98;;
38783;SDS011;24531;45.502;12.238;2023-03-04T11:23:11;14.15;;;8.10;;
38783;SDS011;24531;45.502;12.238;2023-03-04T11:25:47;17.75;;;8.43;;
38783;SDS011;24531;45.502;12.238;2023-03-04T11:28:18;14.88;;;7.82;;
38783;SDS011;24531;45.502;12.238;2023-03-04T11:30:57;14.50;;;8.43;;
38783;SDS011;24531;45.502;12.238;2023-03-04T11:33:38;20.73;;;9.20;;
38783;SDS011;24531;45.502;12.238;2023-03-04T11:39:25;18.30;;;10.07;;
38783;SDS011;24531;45.502;12.238;2023-03-04T11:42:10;17.33;;;9.27;;
38783;SDS011;24531;45.502;12.238;2023-03-04T11:44:58;15.60;;;8.57;;
38783;SDS011;24531;45.502;12.238;2023-03-04T11:53:12;15.68;;;9.95;;
38783;SDS011;24531;45.502;12.238;2023-03-04T11:56:43;18.15;;;9.20;;
38783;SDS011;24531;45.502;12.238;2023-03-04T12:04:45;16.95;;;9.20;;
38783;SDS011;24531;45.502;12.238;2023-03-04T12:07:42;13.70;;;8.77;;
38783;SDS011;24531;45.502;12.238;2023-03-04T12:29:19;15.65;;;8.45;;
38783;SDS011;24531;45.502;12.238;2023-03-04T12:31:52;18.02;;;9.98;;
38783;SDS011;24531;45.502;12.238;2023-03-04T12:45:26;20.30;;;8.68;;
38783;SDS011;24531;45.502;12.238;2023-03-04T12:53:49;17.77;;;9.02;;
38783;SDS011;24531;45.502;12.238;2023-03-04T12:59:21;12.88;;;8.40;;
38783;SDS011;24531;45.502;12.238;2023-03-04T13:02:13;21.90;;;10.15;;
38783;SDS011;24531;45.502;12.238;2023-03-04T13:16:49;17.67;;;9.82;;
38783;SDS011;24531;45.502;12.238;2023-03-04T13:43:44;21.98;;;10.75;;
38783;SDS011;24531;45.502;12.238;2023-03-04T13:56:33;20.25;;;10.38;;
38783;SDS011;24531;45.502;12.238;2023-03-04T14:01:32;24.55;;;11.98;;
38783;SDS011;24531;45.502;12.238;2023-03-04T14:04:25;19.17;;;10.95;;
38783;SDS011;24531;45.502;12.238;2023-03-04T14:06:52;16.50;;;9.70;;
38783;SDS011;24531;45.502;12.238;2023-03-04T14:09:20;17.83;;;10.80;;
38783;SDS011;24531;45.502;12.238;2023-03-04T14:11:48;27.05;;;10.77;;
38783;SDS011;24531;45.502;12.238;2023-03-04T14:14:17;20.35;;;11.65;;
38783;SDS011;24531;45.502;12.238;2023-03-04T14:16:55;17.60;;;10.20;;
38783;SDS011;24531;45.502;12.238;2023-03-04T14:19:27;23.63;;;12.18;;
38783;SDS011;24531;45.502;12.238;2023-03-04T14:21:56;21.85;;;10.75;;
38783;SDS011;24531;45.502;12.238;2023-03-04T14:24:23;24.20;;;11.50;;
38783;SDS011;24531;45.502;12.238;2023-03-04T14:26:49;20.10;;;10.90;;
38783;SDS011;24531;45.502;12.238;2023-03-04T14:29:30;20.55;;;11.40;;
38783;SDS011;24531;45.502;12.238;2023-03-04T14:31:56;22.60;;;10.60;;
38783;SDS011;24531;45.502;12.238;2023-03-04T14:34:24;27.65;;;11.40;;
38783;SDS011;24531;45.502;12.238;2023-03-04T14:36:56;27.55;;;11.43;;
38783;SDS011;24531;45.502;12.238;2023-03-04T14:39:24;15.55;;;9.13;;
38783;SDS011;24531;45.502;12.238;2023-03-04T14:41:54;19.38;;;10.23;;
38783;SDS011;24531;45.502;12.238;2023-03-04T14:44:28;22.83;;;11.75;;
38783;SDS011;24531;45.502;12.238;2023-03-04T14:49:53;24.90;;;10.77;;
38783;SDS011;24531;45.502;12.238;2023-03-04T14:55:16;21.83;;;10.25;;
38783;SDS011;24531;45.502;12.238;2023-03-04T14:57:46;21.48;;;9.82;;
38783;SDS011;24531;45.502;12.238;2023-03-04T15:02:50;20.35;;;10.15;;
38783;SDS011;24531;45.502;12.238;2023-03-04T15:05:19;21.67;;;10.73;;
38783;SDS011;24531;45.502;12.238;2023-03-04T15:07:51;21.95;;;11.10;;
38783;SDS011;24531;45.502;12.238;2023-03-04T15:10:19;19.13;;;9.98;;
38783;SDS011;24531;45.502;12.238;2023-03-04T15:12:52;20.30;;;10.32;;
38783;SDS011;24531;45.502;12.238;2023-03-04T15:15:37;18.50;;;10.07;;
38783;SDS011;24531;45.502;12.238;2023-03-04T15:23:24;24.30;;;10.82;;
38783;SDS011;24531;45.502;12.238;2023-03-04T15:25:52;21.80;;;10.60;;
38783;SDS011;24531;45.502;12.238;2023-03-04T15:28:20;15.77;;;9.18;;
38783;SDS011;24531;45.502;12.238;2023-03-04T15:30:46;22.50;;;10.45;;
38783;SDS011;24531;45.502;12.238;2023-03-04T15:33:15;19.17;;;9.52;;
38783;SDS011;24531;45.502;12.238;2023-03-04T15:35:43;21.88;;;9.93;;
38783;SDS011;24531;45.502;12.238;2023-03-04T15:38:15;21.77;;;9.82;;
38783;SDS011;24531;45.502;12.238;2023-03-04T15:40:41;18.00;;;9.60;;
38783;SDS011;24531;45.502;12.238;2023-03-04T15:43:09;21.23;;;9.52;;
38783;SDS011;24531;45.502;12.238;2023-03-04T15:45:37;19.45;;;10.20;;
38783;SDS011;24531;45.502;12.238;2023-03-04T15:48:04;21.67;;;10.35;;
38783;SDS011;24531;45.502;12.238;2023-03-04T15:50:37;16.85;;;9.52;;
38783;SDS011;24531;45.502;12.238;2023-03-04T15:53:06;19.30;;;9.35;;
38783;SDS011;24531;45.502;12.238;2023-03-04T15:55:38;20.35;;;10.13;;
38783;SDS011;24531;45.502;12.238;2023-03-04T15:58:03;18.92;;;10.25;;
38783;SDS011;24531;45.502;12.238;2023-03-04T16:00:30;17.63;;;9.43;;
38783;SDS011;24531;45.502;12.238;2023-03-04T16:02:57;19.52;;;10.15;;
38783;SDS011;24531;45.502;12.238;2023-03-04T16:05:23;14.63;;;9.57;;
38783;SDS011;24531;45.502;12.238;2023-03-04T16:07:49;21.40;;;10.90;;
38783;SDS011;24531;45.502;12.238;2023-03-04T16:12:45;19.52;;;9.82;;
38783;SDS011;24531;45.502;12.238;2023-03-04T16:15:15;25.70;;;10.20;;
38783;SDS011;24531;45.502;12.238;2023-03-04T16:17:45;16.50;;;9.80;;
38783;SDS011;24531;45.502;12.238;2023-03-04T16:20:12;22.27;;;9.70;;
38783;SDS011;24531;45.502;12.238;2023-03-04T16:22:39;21.25;;;9.35;;
38783;SDS011;24531;45.502;12.238;2023-03-04T16:25:08;22.20;;;10.07;;
38783;SDS011;24531;45.502;12.238;2023-03-04T16:27:35;20.58;;;10.45;;
38783;SDS011;24531;45.502;12.238;2023-03-04T16:30:00;24.08;;;11.50;;
38783;SDS011;24531;45.502;12.238;2023-03-04T16:32:26;18.30;;;10.73;;
38783;SDS011;24531;45.502;12.238;2023-03-04T16:34:52;24.58;;;11.88;;
38783;SDS011;24531;45.502;12.238;2023-03-04T16:37:18;21.23;;;10.50;;
38783;SDS011;24531;45.502;12.238;2023-03-04T16:39:44;27.15;;;10.75;;
38783;SDS011;24531;45.502;12.238;2023-03-04T16:42:16;18.60;;;10.75;;
38783;SDS011;24531;45.502;12.238;2023-03-04T16:44:46;20.55;;;11.18;;
38783;SDS011;24531;45.502;12.238;2023-03-04T16:47:13;23.27;;;11.55;;
38783;SDS011;24531;45.502;12.238;2023-03-04T16:49:39;19.95;;;11.95;;